Flight Track Log - Related Links

Times and Time Zones

All times are in EST time to prevent confusion due to time zone crossing. See the N904ER flight status page for this flight to view local times or setup timezone preferences in your user account.

Time Position Orientation Groundspeed Altitude Reporting Facility
EST Latitude Longitude Course Direction KTS MPH feet Rate Location/Type
Sat 04:12:08 PM 28.9667 -80.9667 164° South 147 169 3,500  Level Orlando TRACON
Sat 04:13:08 PM 28.9167 -80.9500 164° South 150 173 3,500  Level Orlando TRACON
Sat 04:14:08 PM 28.8833 -80.9333 156° South 147 169 3,500  Level Orlando TRACON
Sat 04:15:08 PM 28.8500 -80.9167 156° South 148 170 3,500  Level Orlando TRACON
Sat 04:16:09 PM 28.8000 -80.9000 164° South 151 174 3,500 52 Level Orlando TRACON
Sat 04:17:03 PM 28.7667 -80.8833 156° South 148 170 3,600  Climbing Orlando TRACON
Sat 04:18:03 PM 28.7333 -80.8833 180° South 151 174 3,500 -50 Descending Orlando TRACON
Sat 04:19:03 PM 28.6833 -80.8667 164° South 151 174 3,500  Level Orlando TRACON
Sat 04:20:03 PM 28.6500 -80.8500 156° South 151 174 3,500  Level Orlando TRACON
Sat 04:21:03 PM 28.6167 -80.8333 156° South 151 174 3,500  Level Orlando TRACON
Sat 04:22:03 PM 28.5667 -80.8167 164° South 152 175 3,500  Level Orlando TRACON
Sat 04:23:04 PM 28.5333 -80.8000 156° South 150 173 3,500  Level Orlando TRACON
Sat 04:24:04 PM 28.5000 -80.7833 156° South 150 173 3,500  Level Orlando TRACON
Sat 04:25:04 PM 28.4500 -80.7667 164° South 151 174 3,500  Level Orlando TRACON
Sat 04:26:04 PM 28.4167 -80.7500 156° South 152 175 3,500  Level Orlando TRACON
Sat 04:27:05 PM 28.3667 -80.7333 164° South 153 176 3,500  Level Orlando TRACON
Sat 04:28:05 PM 28.3333 -80.7333 180° South 155 178 3,500  Level Orlando TRACON
Sat 04:29:05 PM 28.2833 -80.7167 164° South 156 180 3,500  Level Orlando TRACON
Sat 04:30:05 PM 28.2500 -80.7000 156° South 156 180 3,500  Level Orlando TRACON
Sat 04:31:05 PM 28.2000 -80.6833 164° South 154 177 3,500  Level Orlando TRACON
Sat 04:32:06 PM 28.1667 -80.6833 180° South 153 176 3,500  Level Orlando TRACON
Sat 04:33:06 PM 28.1167 -80.6667 164° South 151 174 3,500  Level Orlando TRACON
Sat 04:34:06 PM 28.0833 -80.6500 156° South 159 183 3,500  Level Orlando TRACON
Sat 04:35:18 PM 28.0342 -80.6228 154° Southeast 157 181 3,500  Level Miami Center
Sat 04:36:18 PM 27.9950 -80.6050 158° South 157 181 3,500  Level Miami Center
Sat 04:37:18 PM 27.9581 -80.5872 157° South 157 181 3,500  Level Miami Center
Sat 04:38:18 PM 27.9125 -80.5742 166° South 151 174 3,500  Level Miami Center
Sat 04:39:18 PM 27.8708 -80.5633 167° South 151 174 3,500  Level Miami Center
Sat 04:40:18 PM 27.8294 -80.5503 164° South 156 180 3,500  Level Miami Center
Sat 04:41:18 PM 27.7922 -80.5397 166° South 161 185 3,500  Level Miami Center
Sat 04:42:18 PM 27.7486 -80.5289 168° South 161 185 3,500  Level Miami Center

Login

Don't have an account? Register now (free) for customized features, flight alerts, and more!